createdAt,value
2019-03-21T00:01:25.507Z,25.23
2019-03-21T00:04:00.531Z,27.53
2019-03-21T00:06:29.584Z,27.07
2019-03-21T00:08:58.976Z,26.33
2019-03-21T00:12:00.010Z,25.10
2019-03-21T00:14:50.287Z,25.43
2019-03-21T00:17:37.452Z,24.93
2019-03-21T00:20:15.366Z,26.03
2019-03-21T00:22:44.414Z,25.47
2019-03-21T00:25:22.294Z,25.80
2019-03-21T00:27:51.592Z,26.37
2019-03-21T00:30:23.342Z,25.70
2019-03-21T00:32:53.849Z,24.53
2019-03-21T00:35:22.897Z,26.70
2019-03-21T00:37:52.058Z,25.50
2019-03-21T00:40:24.250Z,24.87
2019-03-21T00:42:53.301Z,26.50
2019-03-21T00:45:22.394Z,25.43
2019-03-21T00:47:51.472Z,27.63
2019-03-21T00:50:26.602Z,27.60
2019-03-21T00:52:56.476Z,27.53
2019-03-21T00:55:34.958Z,27.90
2019-03-21T00:58:04.384Z,26.87
2019-03-21T01:00:51.933Z,28.30
2019-03-21T01:03:21.005Z,28.53
2019-03-21T01:05:50.086Z,25.93
2019-03-21T01:08:19.157Z,27.10
2019-03-21T01:10:49.864Z,28.17
2019-03-21T01:13:18.912Z,28.40
2019-03-21T01:15:47.998Z,27.30
2019-03-21T01:18:17.085Z,28.40
2019-03-21T01:20:46.201Z,27.97
2019-03-21T01:23:15.258Z,27.47
2019-03-21T01:25:50.709Z,28.27
2019-03-21T01:28:19.966Z,29.10
2019-03-21T01:30:49.326Z,29.33
2019-03-21T01:33:18.936Z,28.77
2019-03-21T01:35:47.993Z,29.50
2019-03-21T01:38:17.194Z,29.93
2019-03-21T01:40:58.158Z,29.47
2019-03-21T01:43:27.230Z,30.83
2019-03-21T01:45:56.348Z,30.07
2019-03-21T01:48:25.431Z,30.37
2019-03-21T01:50:54.509Z,30.97
2019-03-21T01:53:23.636Z,34.17
2019-03-21T01:55:52.719Z,31.13
2019-03-21T01:58:21.804Z,32.60
2019-03-21T02:00:55.709Z,32.33
2019-03-21T02:03:24.802Z,32.90
2019-03-21T02:05:54.187Z,32.20
2019-03-21T02:08:23.250Z,32.23
2019-03-21T02:10:52.325Z,32.87
2019-03-21T02:13:21.887Z,34.50
2019-03-21T02:15:50.937Z,32.53
2019-03-21T02:18:19.994Z,32.40
2019-03-21T02:20:49.071Z,33.17
2019-03-21T02:23:18.324Z,32.83
2019-03-21T02:25:47.395Z,33.80
2019-03-21T02:28:16.485Z,32.73
2019-03-21T02:30:49.856Z,32.63
2019-03-21T02:33:22.170Z,31.50
2019-03-21T02:35:51.217Z,33.70
2019-03-21T02:38:20.285Z,32.80
2019-03-21T02:40:51.174Z,32.73
2019-03-21T02:43:20.231Z,33.10
2019-03-21T02:45:49.403Z,31.73
2019-03-21T02:48:18.445Z,33.37
2019-03-21T02:50:47.680Z,32.53
2019-03-21T02:53:17.053Z,32.10
2019-03-21T02:55:46.281Z,35.20
2019-03-21T02:58:15.366Z,33.23
2019-03-21T03:00:45.565Z,33.00
2019-03-21T03:03:14.651Z,33.47
2019-03-21T03:05:43.710Z,33.70
2019-03-21T03:08:12.806Z,32.47
2019-03-21T03:10:54.190Z,33.63
2019-03-21T03:13:23.770Z,33.73
2019-03-21T03:15:52.876Z,33.63
2019-03-21T03:18:23.580Z,32.20
2019-03-21T03:20:52.625Z,33.07
2019-03-21T03:23:21.709Z,33.27
2019-03-21T03:25:51.495Z,33.60
2019-03-21T03:28:26.044Z,33.23
2019-03-21T03:30:59.151Z,33.20
2019-03-21T03:33:28.390Z,29.97
2019-03-21T03:35:57.452Z,32.27
2019-03-21T03:38:26.662Z,30.97
2019-03-21T03:40:59.027Z,33.33
2019-03-21T03:43:28.089Z,32.33
2019-03-21T03:45:57.165Z,31.87
2019-03-21T03:48:27.647Z,32.17
2019-03-21T03:50:56.801Z,31.27
2019-03-21T03:53:26.661Z,32.87
2019-03-21T03:55:55.717Z,31.60
2019-03-21T03:58:26.451Z,32.63
2019-03-21T04:00:55.966Z,32.97
2019-03-21T04:03:26.544Z,31.90
2019-03-21T04:05:56.277Z,32.10
2019-03-21T04:08:26.010Z,32.67
2019-03-21T04:10:57.607Z,32.43
2019-03-21T04:13:26.652Z,32.60
2019-03-21T04:15:55.791Z,32.50
2019-03-21T04:18:25.495Z,32.80
2019-03-21T04:21:09.811Z,31.27
2019-03-21T04:23:39.168Z,32.50
2019-03-21T04:26:20.381Z,32.27
2019-03-21T04:28:49.769Z,32.43
2019-03-21T04:31:18.922Z,32.00
2019-03-21T04:33:50.057Z,32.83
2019-03-21T04:36:19.172Z,31.50
2019-03-21T04:38:48.260Z,31.37
2019-03-21T04:41:17.411Z,33.27
2019-03-21T04:43:46.625Z,31.70
2019-03-21T04:46:15.857Z,34.80
2019-03-21T04:48:44.941Z,32.27
2019-03-21T04:51:14.018Z,33.80
2019-03-21T04:53:43.090Z,31.70
2019-03-21T04:56:12.166Z,32.20
2019-03-21T04:58:41.612Z,32.40
2019-03-21T05:01:10.835Z,31.63
2019-03-21T05:03:39.913Z,33.10
2019-03-21T05:06:09.225Z,31.47
2019-03-21T05:08:38.281Z,32.63
2019-03-21T05:11:07.332Z,33.77
2019-03-21T05:13:36.386Z,31.67
2019-03-21T05:16:14.325Z,32.60
2019-03-21T05:18:39.550Z,32.47
2019-03-21T05:21:11.910Z,32.77
2019-03-21T05:23:41.045Z,32.57
2019-03-21T05:26:10.118Z,33.43
2019-03-21T05:28:39.188Z,32.43
2019-03-21T05:31:14.669Z,31.27
2019-03-21T05:33:43.749Z,30.50
2019-03-21T05:36:12.825Z,32.37
2019-03-21T05:38:41.903Z,32.20
2019-03-21T05:41:10.956Z,31.50
2019-03-21T05:43:49.173Z,32.63
2019-03-21T05:46:26.451Z,32.53
2019-03-21T05:48:50.141Z,30.87
2019-03-21T05:51:19.226Z,32.63
2019-03-21T05:53:48.302Z,29.53
2019-03-21T05:56:17.382Z,30.90
2019-03-21T05:58:46.458Z,31.67
2019-03-21T06:01:15.504Z,32.77
2019-03-21T06:03:46.916Z,31.60
2019-03-21T06:06:34.025Z,31.80
2019-03-21T06:09:04.350Z,30.53
2019-03-21T06:11:33.761Z,31.43
2019-03-21T06:14:02.824Z,32.03
2019-03-21T06:16:37.518Z,31.37
2019-03-21T06:19:11.781Z,31.83
2019-03-21T06:22:02.210Z,31.63
2019-03-21T06:24:34.622Z,31.67
2019-03-21T06:27:15.886Z,29.40
2019-03-21T06:29:46.852Z,29.33
2019-03-21T06:32:15.928Z,28.57
2019-03-21T06:34:44.997Z,29.30
2019-03-21T06:37:14.074Z,29.90
2019-03-21T06:39:43.163Z,29.53
2019-03-21T06:42:12.236Z,27.90
2019-03-21T06:44:41.318Z,25.97
2019-03-21T06:47:10.365Z,26.87
2019-03-21T06:49:39.413Z,26.00
2019-03-21T06:52:08.464Z,26.43
2019-03-21T06:54:37.534Z,26.23
2019-03-21T06:57:06.615Z,25.93
2019-03-21T06:59:35.694Z,25.07
2019-03-21T07:02:04.740Z,24.93
2019-03-21T07:04:33.789Z,25.83
2019-03-21T07:07:07.979Z,25.03
2019-03-21T07:09:33.592Z,26.47
2019-03-21T07:12:02.641Z,25.53
2019-03-21T07:14:31.696Z,26.67
2019-03-21T07:17:00.972Z,29.83
2019-03-21T07:19:30.182Z,33.30
2019-03-21T07:21:59.236Z,26.97
2019-03-21T07:24:28.355Z,27.40
2019-03-21T07:26:57.413Z,26.27
2019-03-21T07:29:26.504Z,28.33
2019-03-21T07:31:55.558Z,26.90
2019-03-21T07:34:24.609Z,30.27
2019-03-21T07:36:53.998Z,25.30
2019-03-21T07:39:23.121Z,27.33
2019-03-21T07:41:52.279Z,32.53
2019-03-21T07:44:21.366Z,27.63
2019-03-21T07:46:50.451Z,27.17
2019-03-21T07:49:19.496Z,25.30
2019-03-21T07:51:48.601Z,25.83
2019-03-21T07:54:17.678Z,25.90
2019-03-21T07:56:46.754Z,25.60
2019-03-21T07:59:15.877Z,26.43
2019-03-21T08:01:44.971Z,25.53
2019-03-21T08:04:14.126Z,25.97
2019-03-21T08:06:52.196Z,25.93
2019-03-21T08:09:21.260Z,25.70
2019-03-21T08:11:50.316Z,25.43
2019-03-21T08:14:19.417Z,25.57
2019-03-21T08:16:48.461Z,25.73
2019-03-21T08:19:17.541Z,26.90
2019-03-21T08:21:46.587Z,25.97
2019-03-21T08:24:21.409Z,27.70
2019-03-21T08:26:50.498Z,27.40
2019-03-21T08:29:19.545Z,26.83
2019-03-21T08:31:48.608Z,26.90
2019-03-21T08:34:17.695Z,26.53
2019-03-21T08:36:52.508Z,28.50
2019-03-21T08:39:21.592Z,27.20
2019-03-21T08:41:50.682Z,28.27
2019-03-21T08:44:19.825Z,26.73
2019-03-21T08:46:48.902Z,26.90
2019-03-21T08:49:25.661Z,27.10
2019-03-21T08:51:54.773Z,26.63
2019-03-21T08:54:23.829Z,26.73
2019-03-21T08:56:52.913Z,25.17
2019-03-21T08:59:21.960Z,27.13
2019-03-21T09:01:51.277Z,25.33
2019-03-21T09:04:20.367Z,25.00
2019-03-21T09:06:49.414Z,25.53
2019-03-21T09:09:18.492Z,25.63
2019-03-21T09:11:47.597Z,24.47
2019-03-21T09:14:18.606Z,24.17
2019-03-21T09:16:47.652Z,23.87
2019-03-21T09:19:17.117Z,22.50
2019-03-21T09:21:46.198Z,20.57
2019-03-21T09:24:15.285Z,20.53
2019-03-21T09:26:44.435Z,22.03
2019-03-21T09:29:13.526Z,21.13
2019-03-21T09:31:42.569Z,19.90
2019-03-21T09:34:11.649Z,20.63
2019-03-21T09:36:40.701Z,19.20
2019-03-21T09:39:09.794Z,18.60
2019-03-21T09:41:38.874Z,18.60
2019-03-21T09:44:07.959Z,17.67
2019-03-21T09:46:37.030Z,17.27
2019-03-21T09:49:06.125Z,17.33
2019-03-21T09:51:35.569Z,17.43
2019-03-21T09:54:09.810Z,17.50
2019-03-21T09:56:35.470Z,17.33
2019-03-21T09:59:04.559Z,16.77
2019-03-21T10:01:33.605Z,17.37
2019-03-21T10:04:02.662Z,16.70
2019-03-21T10:06:31.893Z,16.60
2019-03-21T10:09:01.152Z,17.93
2019-03-21T10:11:30.662Z,17.37
2019-03-21T10:14:00.014Z,17.37
2019-03-21T10:16:30.809Z,16.30
2019-03-21T10:18:59.905Z,18.27
2019-03-21T10:21:29.118Z,17.77
2019-03-21T10:23:58.201Z,17.20
2019-03-21T10:26:27.245Z,18.70
2019-03-21T10:28:56.317Z,17.23
2019-03-21T10:31:29.354Z,18.17
2019-03-21T10:33:58.405Z,18.37
2019-03-21T10:36:27.468Z,17.50
2019-03-21T10:38:56.554Z,17.10
2019-03-21T10:41:25.637Z,17.83
2019-03-21T10:43:54.718Z,17.90
2019-03-21T10:46:23.764Z,16.97
2019-03-21T10:48:52.825Z,17.20
2019-03-21T10:51:21.910Z,16.90
2019-03-21T10:53:51.470Z,17.10
2019-03-21T10:56:20.730Z,16.80
2019-03-21T10:58:50.545Z,16.00
2019-03-21T11:01:19.672Z,16.03
2019-03-21T11:03:48.724Z,17.33
2019-03-21T11:06:17.809Z,16.73
2019-03-21T11:08:46.856Z,16.23
2019-03-21T11:11:15.941Z,16.60
2019-03-21T11:13:45.101Z,18.33
2019-03-21T11:16:14.174Z,16.83
2019-03-21T11:18:43.224Z,17.23
2019-03-21T11:21:12.315Z,16.40
2019-03-21T11:23:41.554Z,16.77
2019-03-21T11:26:10.668Z,16.23
2019-03-21T11:28:39.720Z,17.63
2019-03-21T11:31:08.809Z,16.13
2019-03-21T11:33:37.970Z,17.23
2019-03-21T11:36:07.092Z,18.07
2019-03-21T11:38:36.217Z,18.17
2019-03-21T11:41:05.320Z,17.03
2019-03-21T11:43:34.467Z,18.00
2019-03-21T11:46:03.615Z,18.57
2019-03-21T11:48:33.038Z,17.60
2019-03-21T11:51:02.132Z,18.10
2019-03-21T11:53:31.246Z,18.30
2019-03-21T11:56:39.871Z,19.27
2019-03-21T11:59:09.510Z,18.80
2019-03-21T12:01:38.591Z,17.67
2019-03-21T12:04:07.661Z,18.60
2019-03-21T12:06:36.750Z,17.67
2019-03-21T12:09:07.071Z,18.73
2019-03-21T12:11:36.160Z,17.23
2019-03-21T12:14:05.280Z,17.47
2019-03-21T12:16:34.361Z,18.53
2019-03-21T12:19:03.480Z,18.73
2019-03-21T12:21:32.543Z,18.40
2019-03-21T12:24:01.626Z,18.80
2019-03-21T12:26:35.147Z,18.10
2019-03-21T12:29:04.229Z,18.60
2019-03-21T12:31:33.288Z,17.83
2019-03-21T12:34:02.381Z,18.10
2019-03-21T12:36:31.466Z,17.53
2019-03-21T12:39:01.500Z,17.43
2019-03-21T12:41:30.574Z,17.53
2019-03-21T12:43:59.624Z,17.23
2019-03-21T12:46:28.711Z,17.73
2019-03-21T12:48:57.862Z,18.13
2019-03-21T12:51:26.946Z,17.07
2019-03-21T12:53:55.992Z,18.13
2019-03-21T12:56:25.049Z,19.23
2019-03-21T12:58:54.105Z,19.17
2019-03-21T13:01:23.161Z,19.60
2019-03-21T13:03:52.251Z,19.40
2019-03-21T13:06:21.330Z,19.13
2019-03-21T13:08:50.457Z,19.70
2019-03-21T13:11:19.509Z,18.13
2019-03-21T13:13:48.585Z,19.63
2019-03-21T13:16:17.654Z,19.03
2019-03-21T13:18:47.007Z,19.17
2019-03-21T13:21:16.102Z,18.47
2019-03-21T13:23:45.178Z,20.03
2019-03-21T13:26:14.266Z,18.97
2019-03-21T13:28:43.344Z,19.33
2019-03-21T13:31:12.427Z,20.23
2019-03-21T13:33:47.414Z,20.43
2019-03-21T13:36:16.502Z,18.30
2019-03-21T13:38:45.582Z,19.40
2019-03-21T13:41:14.805Z,21.77
2019-03-21T13:43:43.865Z,21.20
2019-03-21T13:46:12.950Z,22.10
2019-03-21T13:48:42.309Z,21.77
2019-03-21T13:51:11.429Z,22.27
2019-03-21T13:53:40.581Z,23.20
2019-03-21T13:56:09.670Z,22.13
2019-03-21T13:58:38.756Z,22.13
2019-03-21T14:01:07.801Z,22.63
2019-03-21T14:03:36.886Z,22.93
2019-03-21T14:06:06.034Z,23.13
2019-03-21T14:08:35.126Z,23.93
2019-03-21T14:11:04.345Z,23.57
2019-03-21T14:13:33.441Z,25.20
2019-03-21T14:16:02.522Z,24.77
2019-03-21T14:18:32.077Z,23.70
2019-03-21T14:21:01.130Z,27.40
2019-03-21T14:23:30.189Z,25.60
2019-03-21T14:25:59.421Z,24.50
2019-03-21T14:28:28.464Z,24.43
2019-03-21T14:30:57.555Z,24.73
2019-03-21T14:33:26.600Z,25.77
2019-03-21T14:35:55.928Z,24.30
2019-03-21T14:38:26.667Z,25.10
2019-03-21T14:40:55.838Z,25.70
2019-03-21T14:43:24.917Z,27.77
2019-03-21T14:45:54.746Z,26.53
2019-03-21T14:48:23.804Z,25.00
2019-03-21T14:50:52.873Z,25.40
2019-03-21T14:53:28.863Z,26.07
2019-03-21T14:55:52.773Z,24.47
2019-03-21T14:58:21.825Z,24.70
2019-03-21T15:00:50.906Z,24.67
2019-03-21T15:03:19.965Z,24.17
2019-03-21T15:05:49.021Z,23.23
2019-03-21T15:08:18.090Z,22.53
2019-03-21T15:10:47.172Z,22.87
2019-03-21T15:13:16.289Z,23.90
2019-03-21T15:15:45.385Z,22.77
2019-03-21T15:18:14.512Z,22.73
2019-03-21T15:20:43.598Z,22.27
2019-03-21T15:23:12.694Z,21.83
2019-03-21T15:25:41.843Z,21.67
2019-03-21T15:28:10.969Z,22.30
2019-03-21T15:30:40.089Z,20.33
2019-03-21T15:33:09.438Z,22.23
2019-03-21T15:35:38.489Z,21.77
2019-03-21T15:38:07.629Z,21.30
2019-03-21T15:40:36.709Z,20.87
2019-03-21T15:43:05.794Z,21.47
2019-03-21T15:45:34.849Z,20.67
2019-03-21T15:48:03.938Z,20.13
2019-03-21T15:50:38.169Z,20.83
2019-03-21T15:53:07.326Z,19.37
2019-03-21T15:55:36.540Z,21.00
2019-03-21T15:58:05.656Z,20.37
2019-03-21T16:00:39.691Z,20.77
2019-03-21T16:03:10.011Z,20.10
2019-03-21T16:05:39.056Z,20.73
2019-03-21T16:08:09.167Z,20.93
2019-03-21T16:10:38.643Z,19.03
2019-03-21T16:13:07.838Z,21.77
2019-03-21T16:15:36.959Z,20.87
2019-03-21T16:18:06.044Z,19.60
2019-03-21T16:20:35.131Z,19.33
2019-03-21T16:23:04.176Z,20.67
2019-03-21T16:25:33.713Z,20.07
2019-03-21T16:28:02.969Z,19.67
2019-03-21T16:30:32.033Z,19.53
2019-03-21T16:33:01.386Z,18.63
2019-03-21T16:35:30.498Z,19.77
2019-03-21T16:37:59.546Z,19.67
2019-03-21T16:40:28.604Z,20.30
2019-03-21T16:42:57.702Z,19.63
2019-03-21T16:45:27.018Z,19.67
2019-03-21T16:47:56.137Z,19.00
2019-03-21T16:50:25.205Z,20.17
2019-03-21T16:52:54.604Z,20.07
2019-03-21T16:55:23.694Z,19.30
2019-03-21T16:57:52.849Z,20.27
2019-03-21T17:00:21.934Z,20.13
2019-03-21T17:02:50.980Z,20.60
2019-03-21T17:05:22.313Z,21.83
2019-03-21T17:07:50.958Z,20.50
2019-03-21T17:10:20.016Z,20.07
2019-03-21T17:12:49.447Z,20.30
2019-03-21T17:15:19.126Z,19.47
2019-03-21T17:17:48.256Z,20.57
2019-03-21T17:20:17.305Z,20.57
2019-03-21T17:22:46.353Z,20.03
2019-03-21T17:25:15.476Z,22.67
2019-03-21T17:27:44.525Z,21.10
2019-03-21T17:30:14.908Z,21.13
2019-03-21T17:32:43.993Z,22.37
2019-03-21T17:35:13.044Z,23.00
2019-03-21T17:37:42.122Z,24.80
2019-03-21T17:40:15.196Z,21.47
2019-03-21T17:42:44.244Z,22.57
2019-03-21T17:45:18.280Z,23.17
2019-03-21T17:47:47.370Z,23.27
2019-03-21T17:50:19.465Z,24.37
2019-03-21T17:52:48.521Z,23.10
2019-03-21T17:55:17.576Z,23.43
2019-03-21T17:57:46.632Z,24.47
2019-03-21T18:00:21.856Z,24.53
2019-03-21T18:02:50.916Z,22.93
2019-03-21T18:05:19.968Z,30.00
2019-03-21T18:07:50.074Z,26.37
2019-03-21T18:10:27.077Z,25.37
2019-03-21T18:12:56.211Z,24.37
2019-03-21T18:15:25.418Z,24.83
2019-03-21T18:17:54.468Z,25.43
2019-03-21T18:20:23.555Z,39.53
2019-03-21T18:22:52.605Z,47.47
2019-03-21T18:25:21.658Z,44.27
2019-03-21T18:27:51.525Z,45.77
2019-03-21T18:30:20.606Z,44.27
2019-03-21T18:32:49.689Z,37.93
2019-03-21T18:35:18.773Z,36.27
2019-03-21T18:37:47.866Z,36.50
2019-03-21T18:40:16.954Z,36.93
2019-03-21T18:42:46.035Z,34.50
2019-03-21T18:45:15.453Z,36.90
2019-03-21T18:47:44.541Z,35.23
2019-03-21T18:50:14.934Z,31.40
2019-03-21T18:52:44.054Z,31.67
2019-03-21T18:55:13.146Z,31.40
2019-03-21T18:57:42.291Z,30.53
2019-03-21T19:00:21.493Z,32.10
2019-03-21T19:02:50.548Z,30.70
2019-03-21T19:05:19.629Z,29.50
2019-03-21T19:07:48.715Z,32.37
2019-03-21T19:10:17.902Z,31.13
2019-03-21T19:12:47.054Z,31.07
2019-03-21T19:15:16.871Z,30.83
2019-03-21T19:17:45.924Z,31.50
2019-03-21T19:20:17.385Z,32.07
2019-03-21T19:22:46.841Z,32.33
2019-03-21T19:25:18.933Z,32.23
2019-03-21T19:27:47.007Z,32.13
2019-03-21T19:30:18.454Z,32.67
2019-03-21T19:32:47.778Z,33.43
2019-03-21T19:35:16.854Z,31.57
2019-03-21T19:37:45.904Z,33.63
2019-03-21T19:40:17.850Z,33.73
2019-03-21T19:42:46.982Z,32.30
2019-03-21T19:45:17.471Z,32.20
2019-03-21T19:47:46.595Z,33.00
2019-03-21T19:50:20.373Z,33.20
2019-03-21T19:52:49.688Z,32.47
2019-03-21T19:55:30.284Z,32.80
2019-03-21T19:57:49.781Z,31.97
2019-03-21T20:00:23.470Z,33.77
2019-03-21T20:02:52.617Z,32.07
2019-03-21T20:05:21.689Z,34.13
2019-03-21T20:07:50.778Z,33.23
2019-03-21T20:10:21.462Z,31.57
2019-03-21T20:12:50.521Z,33.47
2019-03-21T20:15:19.632Z,33.10
2019-03-21T20:17:48.691Z,31.73
2019-03-21T20:20:19.371Z,32.00
2019-03-21T20:22:48.449Z,32.80
2019-03-21T20:25:17.670Z,30.53
2019-03-21T20:27:46.745Z,31.33
2019-03-21T20:30:19.083Z,29.47
2019-03-21T20:32:48.172Z,30.93
2019-03-21T20:35:17.252Z,31.23
2019-03-21T20:37:46.342Z,31.23
2019-03-21T20:40:17.605Z,31.70
2019-03-21T20:42:46.701Z,33.50
2019-03-21T20:45:17.648Z,33.73
2019-03-21T20:47:46.734Z,35.20
2019-03-21T20:50:15.782Z,32.77
2019-03-21T20:52:44.869Z,33.40
2019-03-21T20:55:13.911Z,32.60
2019-03-21T20:57:42.985Z,32.60
2019-03-21T21:00:22.069Z,33.40
2019-03-21T21:02:51.286Z,33.93
2019-03-21T21:05:22.901Z,34.47
2019-03-21T21:07:51.115Z,32.03
2019-03-21T21:10:20.229Z,32.87
2019-03-21T21:12:49.281Z,33.10
2019-03-21T21:15:18.366Z,34.63
2019-03-21T21:17:47.447Z,33.23
2019-03-21T21:20:17.524Z,34.57
2019-03-21T21:22:46.589Z,34.90
2019-03-21T21:25:15.840Z,32.33
2019-03-21T21:27:49.831Z,35.87
2019-03-21T21:30:20.074Z,34.17
2019-03-21T21:32:49.277Z,32.60
2019-03-21T21:35:18.353Z,35.77
2019-03-21T21:37:47.407Z,35.43
2019-03-21T21:40:17.126Z,35.47
2019-03-21T21:42:46.880Z,36.77
2019-03-21T21:45:16.771Z,34.83
2019-03-21T21:47:45.930Z,33.67
2019-03-21T21:50:16.153Z,33.80
2019-03-21T21:52:45.233Z,34.70
2019-03-21T21:55:14.278Z,35.57
2019-03-21T21:57:43.326Z,34.83
2019-03-21T22:00:22.077Z,35.10
2019-03-21T22:02:51.222Z,34.87
2019-03-21T22:05:20.445Z,35.17
2019-03-21T22:07:49.495Z,36.33
2019-03-21T22:10:18.548Z,33.57
2019-03-21T22:12:47.633Z,34.53
2019-03-21T22:15:16.982Z,35.70
2019-03-21T22:17:46.070Z,34.57
2019-03-21T22:20:15.768Z,36.07
2019-03-21T22:22:44.820Z,36.87
2019-03-21T22:25:13.909Z,34.23
2019-03-21T22:27:43.051Z,34.27
2019-03-21T22:30:17.066Z,35.80
2019-03-21T22:32:46.170Z,33.57
2019-03-21T22:35:15.322Z,34.10
2019-03-21T22:37:44.399Z,34.03
2019-03-21T22:40:15.686Z,33.53
2019-03-21T22:42:44.770Z,34.00
2019-03-21T22:45:14.997Z,33.33
2019-03-21T22:47:44.075Z,35.50
2019-03-21T22:50:16.667Z,36.00
2019-03-21T22:52:45.896Z,34.27
2019-03-21T22:55:15.048Z,34.87
2019-03-21T22:57:44.164Z,33.63
2019-03-21T23:00:21.536Z,32.60
2019-03-21T23:02:50.644Z,33.20
2019-03-21T23:05:20.090Z,34.20
2019-03-21T23:07:49.148Z,33.67
2019-03-21T23:10:18.234Z,35.80
2019-03-21T23:12:47.289Z,34.13
2019-03-21T23:15:16.341Z,36.97
2019-03-21T23:17:45.430Z,37.20
2019-03-21T23:20:15.248Z,35.57
2019-03-21T23:22:44.424Z,36.97
2019-03-21T23:25:16.466Z,36.30
2019-03-21T23:27:44.973Z,35.53
2019-03-21T23:30:17.316Z,35.77
2019-03-21T23:32:46.477Z,33.60
2019-03-21T23:35:15.609Z,33.57
2019-03-21T23:37:44.693Z,33.13
2019-03-21T23:40:15.030Z,35.73
2019-03-21T23:42:44.145Z,32.20
2019-03-21T23:45:13.810Z,32.53
2019-03-21T23:47:42.848Z,31.50
2019-03-21T23:50:14.903Z,32.30
2019-03-21T23:52:44.263Z,32.80
2019-03-21T23:55:13.308Z,32.30
2019-03-21T23:57:42.388Z,31.13
